sensor_id;sensor_type;location;lat;lon;timestamp;pressure;altitude;pressure_sealevel;temperature;humidity
72558;BME280;60583;50.094;8.748;2023-12-20T00:01:15;100350.53;;;4.88;100.00
72558;BME280;60583;50.094;8.748;2023-12-20T00:03:41;100351.84;;;4.92;100.00
72558;BME280;60583;50.094;8.748;2023-12-20T00:06:06;100361.72;;;4.82;100.00
72558;BME280;60583;50.094;8.748;2023-12-20T00:08:32;100351.34;;;4.88;100.00
72558;BME280;60583;50.094;8.748;2023-12-20T00:10:57;100307.06;;;4.58;100.00
72558;BME280;60583;50.094;8.748;2023-12-20T00:13:22;100343.88;;;4.84;100.00
72558;BME280;60583;50.094;8.748;2023-12-20T00:15:48;100333.50;;;4.82;100.00
72558;BME280;60583;50.094;8.748;2023-12-20T00:18:13;100323.59;;;4.84;100.00
72558;BME280;60583;50.094;8.748;2023-12-20T00:20:39;100323.56;;;4.76;100.00
72558;BME280;60583;50.094;8.748;2023-12-20T00:23:04;100353.81;;;4.90;100.00
72558;BME280;60583;50.094;8.748;2023-12-20T00:25:30;100339.44;;;4.84;100.00
72558;BME280;60583;50.094;8.748;2023-12-20T00:27:55;100327.53;;;4.72;100.00
72558;BME280;60583;50.094;8.748;2023-12-20T00:30:20;100322.91;;;4.74;100.00
72558;BME280;60583;50.094;8.748;2023-12-20T00:32:46;100298.66;;;4.63;100.00
72558;BME280;60583;50.094;8.748;2023-12-20T00:35:15;100335.16;;;4.83;100.00
72558;BME280;60583;50.094;8.748;2023-12-20T00:37:42;100323.44;;;4.86;100.00
72558;BME280;60583;50.094;8.748;2023-12-20T00:40:08;100323.09;;;4.81;100.00
72558;BME280;60583;50.094;8.748;2023-12-20T00:42:34;100335.81;;;4.85;100.00
72558;BME280;60583;50.094;8.748;2023-12-20T00:45:00;100338.13;;;4.80;100.00
72558;BME280;60583;50.094;8.748;2023-12-20T00:47:25;100329.53;;;4.86;100.00
72558;BME280;60583;50.094;8.748;2023-12-20T00:49:51;100284.94;;;4.59;100.00
72558;BME280;60583;50.094;8.748;2023-12-20T00:52:16;100323.91;;;4.81;100.00
72558;BME280;60583;50.094;8.748;2023-12-20T00:54:43;100322.63;;;4.85;100.00
72558;BME280;60583;50.094;8.748;2023-12-20T00:57:08;100327.41;;;4.90;100.00
72558;BME280;60583;50.094;8.748;2023-12-20T00:59:34;100314.34;;;4.80;100.00
72558;BME280;60583;50.094;8.748;2023-12-20T01:01:59;100324.09;;;4.88;100.00
72558;BME280;60583;50.094;8.748;2023-12-20T01:04:24;100305.28;;;4.83;100.00
72558;BME280;60583;50.094;8.748;2023-12-20T01:06:50;100302.94;;;4.80;100.00
72558;BME280;60583;50.094;8.748;2023-12-20T01:09:15;100296.03;;;4.71;100.00
72558;BME280;60583;50.094;8.748;2023-12-20T01:11:41;100304.28;;;4.76;100.00
72558;BME280;60583;50.094;8.748;2023-12-20T01:14:06;100297.84;;;4.78;100.00
72558;BME280;60583;50.094;8.748;2023-12-20T01:16:31;100285.78;;;4.68;100.00
72558;BME280;60583;50.094;8.748;2023-12-20T01:18:57;100307.91;;;4.75;100.00
72558;BME280;60583;50.094;8.748;2023-12-20T01:21:22;100310.88;;;4.80;100.00
72558;BME280;60583;50.094;8.748;2023-12-20T01:23:47;100298.81;;;4.69;100.00
72558;BME280;60583;50.094;8.748;2023-12-20T01:26:14;100287.94;;;4.72;100.00
72558;BME280;60583;50.094;8.748;2023-12-20T01:28:40;100298.81;;;4.77;100.00
72558;BME280;60583;50.094;8.748;2023-12-20T01:31:05;100299.16;;;4.74;100.00
72558;BME280;60583;50.094;8.748;2023-12-20T01:33:31;100287.94;;;4.72;100.00
72558;BME280;60583;50.094;8.748;2023-12-20T01:35:56;100286.78;;;4.75;100.00
72558;BME280;60583;50.094;8.748;2023-12-20T01:38:22;100304.44;;;4.74;100.00
72558;BME280;60583;50.094;8.748;2023-12-20T01:40:47;100308.25;;;4.80;100.00
72558;BME280;60583;50.094;8.748;2023-12-20T01:43:13;100314.00;;;4.75;100.00
72558;BME280;60583;50.094;8.748;2023-12-20T01:45:38;100283.63;;;4.63;100.00
72558;BME280;60583;50.094;8.748;2023-12-20T01:48:05;100303.78;;;4.80;100.00
72558;BME280;60583;50.094;8.748;2023-12-20T01:50:31;100296.81;;;4.71;100.00
72558;BME280;60583;50.094;8.748;2023-12-20T01:52:59;100298.00;;;4.77;100.00
72558;BME280;60583;50.094;8.748;2023-12-20T01:55:27;100318.97;;;4.78;100.00
72558;BME280;60583;50.094;8.748;2023-12-20T01:57:55;100308.53;;;4.69;100.00
72558;BME280;60583;50.094;8.748;2023-12-20T02:00:21;100310.38;;;4.76;100.00
72558;BME280;60583;50.094;8.748;2023-12-20T02:02:50;100325.06;;;4.79;100.00
72558;BME280;60583;50.094;8.748;2023-12-20T02:05:16;100269.41;;;4.56;100.00
72558;BME280;60583;50.094;8.748;2023-12-20T02:07:41;100313.69;;;4.86;100.00
72558;BME280;60583;50.094;8.748;2023-12-20T02:10:07;100319.13;;;4.85;100.00
72558;BME280;60583;50.094;8.748;2023-12-20T02:12:33;100307.09;;;4.82;100.00
72558;BME280;60583;50.094;8.748;2023-12-20T02:14:58;100315.34;;;4.87;100.00
72558;BME280;60583;50.094;8.748;2023-12-20T02:17:24;100306.44;;;4.80;100.00
72558;BME280;60583;50.094;8.748;2023-12-20T02:19:50;100299.47;;;4.79;100.00
72558;BME280;60583;50.094;8.748;2023-12-20T02:22:15;100282.97;;;4.69;100.00
72558;BME280;60583;50.094;8.748;2023-12-20T02:24:41;100273.41;;;4.60;100.00
72558;BME280;60583;50.094;8.748;2023-12-20T02:27:07;100318.47;;;4.83;100.00
72558;BME280;60583;50.094;8.748;2023-12-20T02:29:34;100296.03;;;4.71;100.00
72558;BME280;60583;50.094;8.748;2023-12-20T02:31:59;100304.25;;;4.68;100.00
72558;BME280;60583;50.094;8.748;2023-12-20T02:34:25;100271.59;;;4.61;100.00
72558;BME280;60583;50.094;8.748;2023-12-20T02:36:50;100276.38;;;4.65;100.00
72558;BME280;60583;50.094;8.748;2023-12-20T02:39:16;100282.66;;;4.72;100.00
72558;BME280;60583;50.094;8.748;2023-12-20T02:41:42;100276.72;;;4.70;100.00
72558;BME280;60583;50.094;8.748;2023-12-20T02:44:07;100271.75;;;4.67;100.00
72558;BME280;60583;50.094;8.748;2023-12-20T02:46:32;100280.00;;;4.72;100.00
72558;BME280;60583;50.094;8.748;2023-12-20T02:48:58;100287.28;;;4.78;100.00
72558;BME280;60583;50.094;8.748;2023-12-20T02:51:23;100282.00;;;4.78;100.00
72558;BME280;60583;50.094;8.748;2023-12-20T02:53:49;100280.00;;;4.72;100.00
72558;BME280;60583;50.094;8.748;2023-12-20T02:56:14;100285.09;;;4.74;100.00
72558;BME280;60583;50.094;8.748;2023-12-20T02:58:40;100250.94;;;4.56;100.00
72558;BME280;60583;50.094;8.748;2023-12-20T03:01:05;100296.00;;;4.79;100.00
72558;BME280;60583;50.094;8.748;2023-12-20T03:03:31;100300.16;;;4.73;100.00
72558;BME280;60583;50.094;8.748;2023-12-20T03:05:57;100311.38;;;4.83;100.00
72558;BME280;60583;50.094;8.748;2023-12-20T03:08:22;100324.25;;;4.86;100.00
72558;BME280;60583;50.094;8.748;2023-12-20T03:10:48;100311.72;;;4.80;100.00
72558;BME280;60583;50.094;8.748;2023-12-20T03:13:13;100306.09;;;4.83;100.00
72558;BME280;60583;50.094;8.748;2023-12-20T03:15:39;100294.72;;;4.83;100.00
72558;BME280;60583;50.094;8.748;2023-12-20T03:18:04;100308.91;;;4.90;100.00
72558;BME280;60583;50.094;8.748;2023-12-20T03:20:30;100300.47;;;4.86;100.00
72558;BME280;60583;50.094;8.748;2023-12-20T03:23:02;100283.63;;;4.71;100.00
72558;BME280;60583;50.094;8.748;2023-12-20T03:25:28;100306.59;;;4.87;100.00
72558;BME280;60583;50.094;8.748;2023-12-20T03:27:53;100310.72;;;4.89;100.00
72558;BME280;60583;50.094;8.748;2023-12-20T03:30:19;100291.22;;;4.74;100.00
72558;BME280;60583;50.094;8.748;2023-12-20T03:32:45;100326.75;;;4.96;100.00
72558;BME280;60583;50.094;8.748;2023-12-20T03:35:10;100316.00;;;4.89;100.00
72558;BME280;60583;50.094;8.748;2023-12-20T03:37:36;100292.56;;;4.70;100.00
72558;BME280;60583;50.094;8.748;2023-12-20T03:40:02;100337.31;;;4.96;100.00
72558;BME280;60583;50.094;8.748;2023-12-20T03:42:27;100333.19;;;4.93;100.00
72558;BME280;60583;50.094;8.748;2023-12-20T03:44:52;100310.03;;;4.79;100.00
72558;BME280;60583;50.094;8.748;2023-12-20T03:47:18;100288.25;;;4.69;100.00
72558;BME280;60583;50.094;8.748;2023-12-20T03:49:43;100339.78;;;4.97;100.00
72558;BME280;60583;50.094;8.748;2023-12-20T03:52:08;100314.69;;;4.85;100.00
72558;BME280;60583;50.094;8.748;2023-12-20T03:54:35;100336.31;;;4.89;100.00
72558;BME280;60583;50.094;8.748;2023-12-20T03:57:01;100344.75;;;5.00;100.00
72558;BME280;60583;50.094;8.748;2023-12-20T03:59:26;100340.94;;;4.95;100.00
72558;BME280;60583;50.094;8.748;2023-12-20T04:01:52;100338.81;;;4.98;100.00
72558;BME280;60583;50.094;8.748;2023-12-20T04:04:17;100354.50;;;5.00;100.00
72558;BME280;60583;50.094;8.748;2023-12-20T04:06:43;100335.16;;;4.99;100.00
72558;BME280;60583;50.094;8.748;2023-12-20T04:09:08;100337.97;;;4.98;100.00
72558;BME280;60583;50.094;8.748;2023-12-20T04:11:37;100334.81;;;4.94;100.00
72558;BME280;60583;50.094;8.748;2023-12-20T04:14:02;100345.91;;;5.06;100.00
72558;BME280;60583;50.094;8.748;2023-12-20T04:16:27;100332.53;;;4.99;100.00
72558;BME280;60583;50.094;8.748;2023-12-20T04:18:53;100359.94;;;5.06;100.00
72558;BME280;60583;50.094;8.748;2023-12-20T04:21:18;100360.09;;;5.05;100.00
72558;BME280;60583;50.094;8.748;2023-12-20T04:23:43;100300.31;;;4.80;100.00
72558;BME280;60583;50.094;8.748;2023-12-20T04:26:09;100356.16;;;5.01;100.00
72558;BME280;60583;50.094;8.748;2023-12-20T04:28:35;100341.75;;;4.87;100.00
72558;BME280;60583;50.094;8.748;2023-12-20T04:31:00;100330.53;;;4.77;100.00
72558;BME280;60583;50.094;8.748;2023-12-20T04:33:26;100351.34;;;4.96;100.00
72558;BME280;60583;50.094;8.748;2023-12-20T04:35:51;100361.75;;;4.98;100.00
72558;BME280;60583;50.094;8.748;2023-12-20T04:38:16;100366.22;;;4.97;100.00
72558;BME280;60583;50.094;8.748;2023-12-20T04:40:42;100349.38;;;4.90;100.00
72558;BME280;60583;50.094;8.748;2023-12-20T04:43:08;100329.84;;;4.75;100.00
72558;BME280;60583;50.094;8.748;2023-12-20T04:45:34;100367.38;;;4.95;100.00
72558;BME280;60583;50.094;8.748;2023-12-20T04:48:00;100379.75;;;5.02;100.00
72558;BME280;60583;50.094;8.748;2023-12-20T04:50:26;100363.75;;;4.96;100.00
72558;BME280;60583;50.094;8.748;2023-12-20T04:52:51;100383.72;;;5.06;100.00
72558;BME280;60583;50.094;8.748;2023-12-20T04:55:17;100382.22;;;5.04;100.00
72558;BME280;60583;50.094;8.748;2023-12-20T04:57:42;100361.91;;;4.88;100.00
72558;BME280;60583;50.094;8.748;2023-12-20T05:00:08;100387.34;;;4.97;100.00
72558;BME280;60583;50.094;8.748;2023-12-20T05:02:35;100375.28;;;4.87;100.00
72558;BME280;60583;50.094;8.748;2023-12-20T05:05:00;100388.81;;;4.92;100.00
72558;BME280;60583;50.094;8.748;2023-12-20T05:07:26;100380.38;;;4.80;100.00
72558;BME280;60583;50.094;8.748;2023-12-20T05:09:51;100373.41;;;4.71;100.00
72558;BME280;60583;50.094;8.748;2023-12-20T05:12:16;100399.53;;;4.82;100.00
72558;BME280;60583;50.094;8.748;2023-12-20T05:14:42;100389.94;;;4.73;100.00
72558;BME280;60583;50.094;8.748;2023-12-20T05:17:07;100376.75;;;4.73;100.00
72558;BME280;60583;50.094;8.748;2023-12-20T05:19:32;100389.28;;;4.79;100.00
72558;BME280;60583;50.094;8.748;2023-12-20T05:22:01;100416.91;;;4.93;100.00
72558;BME280;60583;50.094;8.748;2023-12-20T05:24:26;100412.28;;;4.95;100.00
72558;BME280;60583;50.094;8.748;2023-12-20T05:26:52;100427.31;;;5.02;100.00
72558;BME280;60583;50.094;8.748;2023-12-20T05:29:17;100421.53;;;5.07;100.00
72558;BME280;60583;50.094;8.748;2023-12-20T05:31:43;100423.03;;;5.09;100.00
72558;BME280;60583;50.094;8.748;2023-12-20T05:34:08;100423.69;;;5.11;100.00
72558;BME280;60583;50.094;8.748;2023-12-20T05:36:33;100430.31;;;5.07;100.00
72558;BME280;60583;50.094;8.748;2023-12-20T05:38:59;100415.56;;;4.97;100.00
72558;BME280;60583;50.094;8.748;2023-12-20T05:41:24;100436.88;;;4.95;100.00
72558;BME280;60583;50.094;8.748;2023-12-20T05:43:50;100438.88;;;4.93;100.00
72558;BME280;60583;50.094;8.748;2023-12-20T05:46:15;100435.53;;;4.91;100.00
72558;BME280;60583;50.094;8.748;2023-12-20T05:48:41;100427.63;;;4.83;100.00
72558;BME280;60583;50.094;8.748;2023-12-20T05:51:06;100403.44;;;4.62;100.00
72558;BME280;60583;50.094;8.748;2023-12-20T05:53:31;100415.97;;;4.60;100.00
72558;BME280;60583;50.094;8.748;2023-12-20T05:55:57;100398.94;;;4.55;100.00
72558;BME280;60583;50.094;8.748;2023-12-20T05:58:22;100416.97;;;4.67;100.00
72558;BME280;60583;50.094;8.748;2023-12-20T06:00:47;100422.78;;;4.71;100.00
72558;BME280;60583;50.094;8.748;2023-12-20T06:03:14;100424.25;;;4.65;100.00
72558;BME280;60583;50.094;8.748;2023-12-20T06:05:39;100409.69;;;4.61;100.00
72558;BME280;60583;50.094;8.748;2023-12-20T06:08:05;100427.72;;;4.74;100.00
72558;BME280;60583;50.094;8.748;2023-12-20T06:10:31;100418.13;;;4.65;100.00
72558;BME280;60583;50.094;8.748;2023-12-20T06:12:56;100432.31;;;4.56;100.00
72558;BME280;60583;50.094;8.748;2023-12-20T06:15:23;100434.41;;;4.52;100.00
72558;BME280;60583;50.094;8.748;2023-12-20T06:17:49;100431.91;;;4.42;100.00
72558;BME280;60583;50.094;8.748;2023-12-20T06:20:15;100374.94;;;3.98;100.00
72558;BME280;60583;50.094;8.748;2023-12-20T06:22:40;100437.25;;;4.25;100.00
72558;BME280;60583;50.094;8.748;2023-12-20T06:25:06;100468.56;;;4.45;100.00
72558;BME280;60583;50.094;8.748;2023-12-20T06:27:32;100438.94;;;4.34;100.00
72558;BME280;60583;50.094;8.748;2023-12-20T06:29:58;100462.16;;;4.56;100.00
72558;BME280;60583;50.094;8.748;2023-12-20T06:32:23;100438.03;;;4.51;100.00
72558;BME280;60583;50.094;8.748;2023-12-20T06:34:49;100450.31;;;4.60;100.00
72558;BME280;60583;50.094;8.748;2023-12-20T06:37:15;100432.91;;;4.49;100.00
72558;BME280;60583;50.094;8.748;2023-12-20T06:39:40;100420.88;;;4.47;100.00
72558;BME280;60583;50.094;8.748;2023-12-20T06:42:06;100425.00;;;4.49;100.00
72558;BME280;60583;50.094;8.748;2023-12-20T06:44:31;100450.66;;;4.65;100.00
72558;BME280;60583;50.094;8.748;2023-12-20T06:46:57;100453.66;;;4.70;100.00
72558;BME280;60583;50.094;8.748;2023-12-20T06:49:22;100455.28;;;4.71;100.00
72558;BME280;60583;50.094;8.748;2023-12-20T06:51:48;100433.28;;;4.55;100.00
72558;BME280;60583;50.094;8.748;2023-12-20T06:54:13;100462.22;;;4.72;100.00
72558;BME280;60583;50.094;8.748;2023-12-20T06:56:40;100453.59;;;4.62;100.00
72558;BME280;60583;50.094;8.748;2023-12-20T06:59:06;100465.47;;;4.58;100.00
72558;BME280;60583;50.094;8.748;2023-12-20T07:01:31;100462.84;;;4.58;100.00
72558;BME280;60583;50.094;8.748;2023-12-20T07:03:57;100476.72;;;4.60;100.00
72558;BME280;60583;50.094;8.748;2023-12-20T07:06:22;100464.28;;;4.53;100.00
72558;BME280;60583;50.094;8.748;2023-12-20T07:08:48;100481.59;;;4.47;100.00
72558;BME280;60583;50.094;8.748;2023-12-20T07:11:13;100487.84;;;4.46;100.00
72558;BME280;60583;50.094;8.748;2023-12-20T07:13:38;100477.25;;;4.38;100.00
72558;BME280;60583;50.094;8.748;2023-12-20T07:16:04;100462.28;;;4.21;100.00
72558;BME280;60583;50.094;8.748;2023-12-20T07:18:29;100479.19;;;4.36;100.00
72558;BME280;60583;50.094;8.748;2023-12-20T07:20:55;100487.16;;;4.44;100.00
72558;BME280;60583;50.094;8.748;2023-12-20T07:23:20;100487.84;;;4.46;100.00
72558;BME280;60583;50.094;8.748;2023-12-20T07:25:46;100481.53;;;4.39;100.00
72558;BME280;60583;50.094;8.748;2023-12-20T07:28:12;100500.53;;;4.42;100.00
72558;BME280;60583;50.094;8.748;2023-12-20T07:30:37;100491.78;;;4.42;100.00
72558;BME280;60583;50.094;8.748;2023-12-20T07:33:03;100489.03;;;4.51;100.00
72558;BME280;60583;50.094;8.748;2023-12-20T07:35:28;100483.91;;;4.50;100.00
72558;BME280;60583;50.094;8.748;2023-12-20T07:37:53;100497.53;;;4.63;100.00
72558;BME280;60583;50.094;8.748;2023-12-20T07:40:19;100490.22;;;4.57;100.00
72558;BME280;60583;50.094;8.748;2023-12-20T07:42:44;100494.34;;;4.60;100.00
72558;BME280;60583;50.094;8.748;2023-12-20T07:45:10;100474.81;;;4.44;100.00
72558;BME280;60583;50.094;8.748;2023-12-20T07:47:38;100494.31;;;4.51;100.00
72558;BME280;60583;50.094;8.748;2023-12-20T07:50:03;100508.34;;;4.52;100.00
72558;BME280;60583;50.094;8.748;2023-12-20T07:52:29;100488.34;;;4.49;100.00
72558;BME280;60583;50.094;8.748;2023-12-20T07:54:55;100495.41;;;4.41;100.00
72558;BME280;60583;50.094;8.748;2023-12-20T07:57:20;100493.91;;;4.38;100.00
72558;BME280;60583;50.094;8.748;2023-12-20T07:59:46;100509.19;;;4.53;100.00
72558;BME280;60583;50.094;8.748;2023-12-20T08:02:11;100510.31;;;4.50;100.00
72558;BME280;60583;50.094;8.748;2023-12-20T08:04:37;100513.94;;;4.49;100.00
72558;BME280;60583;50.094;8.748;2023-12-20T08:07:03;100516.31;;;4.60;100.00
72558;BME280;60583;50.094;8.748;2023-12-20T08:09:28;100506.22;;;4.56;100.00
72558;BME280;60583;50.094;8.748;2023-12-20T08:11:54;100522.09;;;4.64;100.00
72558;BME280;60583;50.094;8.748;2023-12-20T08:14:19;100494.31;;;4.51;100.00
72558;BME280;60583;50.094;8.748;2023-12-20T08:16:45;100503.81;;;4.70;100.00
72558;BME280;60583;50.094;8.748;2023-12-20T08:19:10;100504.16;;;4.75;100.00
72558;BME280;60583;50.094;8.748;2023-12-20T08:21:35;100474.06;;;4.60;100.00
72558;BME280;60583;50.094;8.748;2023-12-20T08:24:01;100521.03;;;4.82;100.00
72558;BME280;60583;50.094;8.748;2023-12-20T08:26:26;100509.16;;;4.78;100.00
72558;BME280;60583;50.094;8.748;2023-12-20T08:28:52;100501.56;;;4.83;100.00
72558;BME280;60583;50.094;8.748;2023-12-20T08:31:18;100516.63;;;4.99;100.00
72558;BME280;60583;50.094;8.748;2023-12-20T08:33:45;100519.13;;;5.00;100.00
72558;BME280;60583;50.094;8.748;2023-12-20T08:36:11;100487.06;;;4.87;100.00
72558;BME280;60583;50.094;8.748;2023-12-20T08:38:36;100494.84;;;4.97;100.00
72558;BME280;60583;50.094;8.748;2023-12-20T08:41:02;100506.06;;;4.99;100.00
72558;BME280;60583;50.094;8.748;2023-12-20T08:43:35;100495.00;;;4.95;100.00
72558;BME280;60583;50.094;8.748;2023-12-20T08:46:01;100522.66;;;5.17;100.00
72558;BME280;60583;50.094;8.748;2023-12-20T08:48:28;100511.59;;;5.13;100.00
72558;BME280;60583;50.094;8.748;2023-12-20T08:50:54;100546.66;;;5.32;100.00
72558;BME280;60583;50.094;8.748;2023-12-20T08:53:19;100526.31;;;5.24;100.00
72558;BME280;60583;50.094;8.748;2023-12-20T08:55:45;100504.66;;;5.21;100.00
72558;BME280;60583;50.094;8.748;2023-12-20T08:58:11;100520.69;;;5.27;100.00
72558;BME280;60583;50.094;8.748;2023-12-20T09:00:36;100518.38;;;5.24;100.00
72558;BME280;60583;50.094;8.748;2023-12-20T09:03:02;100519.56;;;5.30;100.00
72558;BME280;60583;50.094;8.748;2023-12-20T09:05:28;100523.22;;;5.45;100.00
72558;BME280;60583;50.094;8.748;2023-12-20T09:07:53;100505.53;;;5.37;100.00
72558;BME280;60583;50.094;8.748;2023-12-20T09:10:19;100497.56;;;5.29;100.00
72558;BME280;60583;50.094;8.748;2023-12-20T09:12:49;100517.47;;;5.57;100.00
72558;BME280;60583;50.094;8.748;2023-12-20T09:15:14;100488.19;;;5.43;100.00
72558;BME280;60583;50.094;8.748;2023-12-20T09:17:40;100478.25;;;5.37;100.00
72558;BME280;60583;50.094;8.748;2023-12-20T09:20:07;100519.94;;;5.67;100.00
72558;BME280;60583;50.094;8.748;2023-12-20T09:22:34;100514.97;;;5.64;100.00
72558;BME280;60583;50.094;8.748;2023-12-20T09:25:00;100528.88;;;5.74;100.00
72558;BME280;60583;50.094;8.748;2023-12-20T09:27:27;100500.78;;;5.65;100.00
72558;BME280;60583;50.094;8.748;2023-12-20T09:29:52;100509.69;;;5.72;100.00
72558;BME280;60583;50.094;8.748;2023-12-20T09:32:18;100528.56;;;5.77;100.00
72558;BME280;60583;50.094;8.748;2023-12-20T09:34:45;100506.22;;;5.71;100.00
72558;BME280;60583;50.094;8.748;2023-12-20T09:37:11;100486.91;;;5.87;100.00
72558;BME280;60583;50.094;8.748;2023-12-20T09:39:36;100525.28;;;6.15;99.37
72558;BME280;60583;50.094;8.748;2023-12-20T09:42:05;100520.69;;;6.01;98.91
72558;BME280;60583;50.094;8.748;2023-12-20T09:44:32;100511.41;;;6.13;98.21
72558;BME280;60583;50.094;8.748;2023-12-20T09:47:02;100514.03;;;6.21;98.58
72558;BME280;60583;50.094;8.748;2023-12-20T09:49:28;100518.31;;;6.22;99.09
72558;BME280;60583;50.094;8.748;2023-12-20T09:51:55;100513.38;;;6.03;98.75
72558;BME280;60583;50.094;8.748;2023-12-20T09:54:22;100517.69;;;6.12;98.49
72558;BME280;60583;50.094;8.748;2023-12-20T09:56:48;100525.28;;;6.23;97.78
72558;BME280;60583;50.094;8.748;2023-12-20T09:59:14;100525.78;;;6.19;97.78
72558;BME280;60583;50.094;8.748;2023-12-20T10:01:41;100546.28;;;6.25;98.04
72558;BME280;60583;50.094;8.748;2023-12-20T10:04:08;100538.53;;;6.31;97.75
72558;BME280;60583;50.094;8.748;2023-12-20T10:06:40;100529.88;;;6.62;96.18
72558;BME280;60583;50.094;8.748;2023-12-20T10:09:06;100528.28;;;6.83;94.65
72558;BME280;60583;50.094;8.748;2023-12-20T10:11:31;100523.09;;;6.98;94.16
72558;BME280;60583;50.094;8.748;2023-12-20T10:14:00;100513.88;;;6.86;94.92
72558;BME280;60583;50.094;8.748;2023-12-20T10:16:27;100510.25;;;6.79;95.65
72558;BME280;60583;50.094;8.748;2023-12-20T10:18:53;100509.56;;;6.85;94.70
72558;BME280;60583;50.094;8.748;2023-12-20T10:21:19;100513.84;;;6.94;94.32
72558;BME280;60583;50.094;8.748;2023-12-20T10:23:45;100508.41;;;7.18;92.80
72558;BME280;60583;50.094;8.748;2023-12-20T10:26:19;100497.63;;;7.50;91.88
72558;BME280;60583;50.094;8.748;2023-12-20T10:28:44;100486.91;;;7.66;89.47
72558;BME280;60583;50.094;8.748;2023-12-20T10:31:10;100505.06;;;8.00;88.22
72558;BME280;60583;50.094;8.748;2023-12-20T10:33:35;100484.00;;;8.13;88.39
72558;BME280;60583;50.094;8.748;2023-12-20T10:36:00;100480.22;;;7.70;88.73
72558;BME280;60583;50.094;8.748;2023-12-20T10:38:26;100474.88;;;7.56;90.23
72558;BME280;60583;50.094;8.748;2023-12-20T10:40:56;100462.53;;;7.40;90.48
72558;BME280;60583;50.094;8.748;2023-12-20T10:43:23;100444.03;;;7.32;90.87
72558;BME280;60583;50.094;8.748;2023-12-20T10:45:51;100446.53;;;9.32;82.47
72558;BME280;60583;50.094;8.748;2023-12-20T10:48:18;100454.81;;;10.35;76.56
72558;BME280;60583;50.094;8.748;2023-12-20T10:50:44;100445.38;;;11.20;72.23
72558;BME280;60583;50.094;8.748;2023-12-20T10:53:10;100453.69;;;11.58;70.43
72558;BME280;60583;50.094;8.748;2023-12-20T10:55:37;100465.25;;;12.24;68.21
72558;BME280;60583;50.094;8.748;2023-12-20T10:58:09;100449.03;;;12.90;65.29
72558;BME280;60583;50.094;8.748;2023-12-20T11:00:41;100460.38;;;13.36;62.72
72558;BME280;60583;50.094;8.748;2023-12-20T11:03:09;100454.25;;;13.91;60.93
72558;BME280;60583;50.094;8.748;2023-12-20T11:05:54;100431.66;;;13.12;62.31
72558;BME280;60583;50.094;8.748;2023-12-20T11:08:30;100430.84;;;12.47;63.66
72558;BME280;60583;50.094;8.748;2023-12-20T11:11:03;100427.94;;;12.68;63.36
72558;BME280;60583;50.094;8.748;2023-12-20T11:13:53;100457.75;;;12.78;63.32
72558;BME280;60583;50.094;8.748;2023-12-20T11:16:19;100446.75;;;12.16;65.58
72558;BME280;60583;50.094;8.748;2023-12-20T11:18:45;100457.16;;;10.85;69.86
72558;BME280;60583;50.094;8.748;2023-12-20T11:21:10;100446.94;;;10.95;68.46
72558;BME280;60583;50.094;8.748;2023-12-20T11:23:36;100426.31;;;10.07;72.50
72558;BME280;60583;50.094;8.748;2023-12-20T11:26:02;100450.34;;;10.76;71.15
72558;BME280;60583;50.094;8.748;2023-12-20T11:28:28;100452.69;;;10.92;70.40
72558;BME280;60583;50.094;8.748;2023-12-20T11:30:57;100465.13;;;10.72;70.48
72558;BME280;60583;50.094;8.748;2023-12-20T11:33:45;100455.19;;;9.76;74.49
72558;BME280;60583;50.094;8.748;2023-12-20T11:36:14;100455.63;;;9.02;77.50
72558;BME280;60583;50.094;8.748;2023-12-20T11:39:00;100452.81;;;8.74;78.86
72558;BME280;60583;50.094;8.748;2023-12-20T11:41:28;100430.59;;;8.46;79.29
72558;BME280;60583;50.094;8.748;2023-12-20T11:43:55;100436.16;;;8.36;79.49
72558;BME280;60583;50.094;8.748;2023-12-20T11:46:21;100429.63;;;8.24;81.52
72558;BME280;60583;50.094;8.748;2023-12-20T11:48:47;100420.25;;;8.13;81.28
72558;BME280;60583;50.094;8.748;2023-12-20T11:51:13;100438.41;;;8.10;81.07
72558;BME280;60583;50.094;8.748;2023-12-20T11:53:40;100451.56;;;8.03;81.05
72558;BME280;60583;50.094;8.748;2023-12-20T11:56:06;100431.69;;;7.85;81.63
72558;BME280;60583;50.094;8.748;2023-12-20T11:58:33;100421.06;;;7.85;81.58
72558;BME280;60583;50.094;8.748;2023-12-20T12:00:58;100433.50;;;7.84;80.77
72558;BME280;60583;50.094;8.748;2023-12-20T12:03:24;100423.25;;;7.81;79.84
72558;BME280;60583;50.094;8.748;2023-12-20T12:05:49;100390.97;;;7.55;79.20
72558;BME280;60583;50.094;8.748;2023-12-20T12:08:16;100438.00;;;7.84;79.36
72558;BME280;60583;50.094;8.748;2023-12-20T12:10:43;100432.31;;;7.87;78.97
72558;BME280;60583;50.094;8.748;2023-12-20T12:13:08;100420.44;;;7.83;78.56
72558;BME280;60583;50.094;8.748;2023-12-20T12:15:35;100401.72;;;7.76;79.38
72558;BME280;60583;50.094;8.748;2023-12-20T12:18:01;100392.28;;;7.73;77.76
72558;BME280;60583;50.094;8.748;2023-12-20T12:20:26;100399.47;;;7.88;77.80
72558;BME280;60583;50.094;8.748;2023-12-20T12:23:03;100405.63;;;8.03;77.00
72558;BME280;60583;50.094;8.748;2023-12-20T12:25:29;100358.25;;;7.62;76.66
72558;BME280;60583;50.094;8.748;2023-12-20T12:27:56;100415.31;;;7.96;76.46
72558;BME280;60583;50.094;8.748;2023-12-20T12:30:22;100408.81;;;7.98;76.34
72558;BME280;60583;50.094;8.748;2023-12-20T12:32:48;100413.94;;;8.00;75.89
72558;BME280;60583;50.094;8.748;2023-12-20T12:35:14;100404.69;;;7.96;76.44
72558;BME280;60583;50.094;8.748;2023-12-20T12:37:40;100419.06;;;8.01;76.34
72558;BME280;60583;50.094;8.748;2023-12-20T12:40:17;100405.34;;;7.98;75.06
72558;BME280;60583;50.094;8.748;2023-12-20T12:42:44;100387.47;;;7.92;76.16
72558;BME280;60583;50.094;8.748;2023-12-20T12:45:10;100407.25;;;8.04;75.76
72558;BME280;60583;50.094;8.748;2023-12-20T12:47:37;100381.81;;;7.95;76.07